createdAt,value
2023-02-19T00:01:08.842Z,-0.42
2023-02-19T00:03:38.146Z,-0.44
2023-02-19T00:06:06.594Z,-0.46
2023-02-19T00:08:34.932Z,-0.44
2023-02-19T00:11:03.231Z,-0.41
2023-02-19T00:13:32.613Z,-0.37
2023-02-19T00:16:00.623Z,-0.43
2023-02-19T00:18:28.324Z,-0.41
2023-02-19T00:20:56.848Z,-0.41
2023-02-19T00:23:24.538Z,-0.42
2023-02-19T00:25:52.215Z,-0.43
2023-02-19T00:28:19.916Z,-0.43
2023-02-19T00:30:49.015Z,-0.45
2023-02-19T00:33:16.842Z,-0.46
2023-02-19T00:35:44.580Z,-0.42
2023-02-19T00:38:12.319Z,-0.42
2023-02-19T00:40:40.036Z,-0.45
2023-02-19T00:43:07.719Z,-0.47
2023-02-19T00:45:36.336Z,-0.47
2023-02-19T00:48:05.482Z,-0.49
2023-02-19T00:50:33.114Z,-0.48
2023-02-19T00:53:00.799Z,-0.56
2023-02-19T00:55:28.473Z,-0.58
2023-02-19T00:57:56.117Z,-0.58
2023-02-19T01:00:23.772Z,-0.60
2023-02-19T01:02:51.375Z,-0.56
2023-02-19T01:05:20.643Z,-0.60
2023-02-19T01:07:48.351Z,-0.60
2023-02-19T01:10:16.008Z,-0.60
2023-02-19T01:12:46.734Z,-0.58
2023-02-19T01:15:14.339Z,-0.58
2023-02-19T01:17:42.041Z,-0.56
2023-02-19T01:20:10.209Z,-0.55
2023-02-19T01:22:39.247Z,-0.59
2023-02-19T01:25:07.707Z,-0.58
2023-02-19T01:27:35.369Z,-0.64
2023-02-19T01:30:03.115Z,-0.61
2023-02-19T01:32:30.797Z,-0.64
2023-02-19T01:34:58.397Z,-0.65
2023-02-19T01:37:26.123Z,-0.67
2023-02-19T01:39:55.098Z,-0.70
2023-02-19T01:42:22.697Z,-0.65
2023-02-19T01:45:08.901Z,-0.64
2023-02-19T01:47:36.596Z,-0.68
2023-02-19T01:50:04.392Z,-0.70
2023-02-19T01:52:33.287Z,-0.68
2023-02-19T01:55:03.589Z,-0.67
2023-02-19T01:57:34.351Z,-0.67
2023-02-19T02:00:05.304Z,-0.66
2023-02-19T02:02:33.088Z,-0.69
2023-02-19T02:05:01.003Z,-0.67
2023-02-19T02:07:46.033Z,-0.71
2023-02-19T02:10:24.056Z,-0.71
2023-02-19T02:12:52.546Z,-0.70
2023-02-19T02:15:20.676Z,-0.76
2023-02-19T02:17:52.170Z,-0.73
2023-02-19T02:20:28.966Z,-0.72
2023-02-19T02:23:01.380Z,-0.74
2023-02-19T02:25:49.522Z,-0.73
2023-02-19T02:28:27.817Z,-0.75
2023-02-19T02:30:57.566Z,-0.72
2023-02-19T02:33:32.737Z,-0.76
2023-02-19T02:36:03.350Z,-0.75
2023-02-19T02:38:33.106Z,-0.77
2023-02-19T02:41:01.145Z,-0.76
2023-02-19T02:43:28.782Z,-0.75
2023-02-19T02:45:58.133Z,-0.78
2023-02-19T02:48:35.272Z,-0.76
2023-02-19T02:51:07.309Z,-0.77
2023-02-19T02:53:55.922Z,-0.78
2023-02-19T02:56:25.277Z,-0.73
2023-02-19T02:58:53.861Z,-0.72
2023-02-19T03:01:42.654Z,-0.72
2023-02-19T03:04:13.183Z,-0.68
2023-02-19T03:06:41.601Z,-0.70
2023-02-19T03:09:12.314Z,-0.66
2023-02-19T03:11:59.069Z,-0.68
2023-02-19T03:14:46.220Z,-0.69
2023-02-19T03:17:35.419Z,-0.65
2023-02-19T03:20:06.374Z,-0.65
2023-02-19T03:22:35.640Z,-0.63
2023-02-19T03:25:23.767Z,-0.54
2023-02-19T03:27:52.327Z,-0.53
2023-02-19T03:30:21.852Z,-0.50
2023-02-19T03:32:54.773Z,-0.51
2023-02-19T03:35:23.605Z,-0.51
2023-02-19T03:37:53.932Z,-0.48
2023-02-19T03:40:22.835Z,-0.42
2023-02-19T03:42:57.099Z,-0.43
2023-02-19T03:45:37.783Z,-0.40
2023-02-19T03:48:17.024Z,-0.42
2023-02-19T03:50:47.103Z,-0.40
2023-02-19T03:53:19.490Z,-0.41
2023-02-19T03:55:51.765Z,-0.42
2023-02-19T03:58:25.747Z,-0.42
2023-02-19T04:00:56.266Z,-0.43
2023-02-19T04:03:29.660Z,-0.38
2023-02-19T04:05:59.855Z,-0.35
2023-02-19T04:08:28.207Z,-0.32
2023-02-19T04:10:56.496Z,-0.31
2023-02-19T04:13:26.602Z,-0.31
2023-02-19T04:15:56.223Z,-0.30
2023-02-19T04:18:26.824Z,-0.31
2023-02-19T04:20:54.642Z,-0.30
2023-02-19T04:23:24.426Z,-0.27
2023-02-19T04:25:54.571Z,-0.30
2023-02-19T04:28:22.820Z,-0.34
2023-02-19T04:30:50.584Z,-0.37
2023-02-19T04:33:18.326Z,-0.32
2023-02-19T04:35:47.358Z,-0.34
2023-02-19T04:38:15.121Z,-0.36
2023-02-19T04:40:42.764Z,-0.41
2023-02-19T04:43:10.491Z,-0.40
2023-02-19T04:45:38.475Z,-0.42
2023-02-19T04:48:06.373Z,-0.40
2023-02-19T04:50:34.068Z,-0.41
2023-02-19T04:53:03.171Z,-0.40
2023-02-19T04:55:30.848Z,-0.40
2023-02-19T04:57:58.573Z,-0.39
2023-02-19T05:00:26.283Z,-0.35
2023-02-19T05:02:53.938Z,-0.37
2023-02-19T05:05:21.570Z,-0.37
2023-02-19T05:07:49.406Z,-0.37
2023-02-19T05:10:18.672Z,-0.37
2023-02-19T05:12:46.281Z,-0.39
2023-02-19T05:15:13.969Z,-0.42
2023-02-19T05:17:41.634Z,-0.45
2023-02-19T05:20:10.117Z,-0.49
2023-02-19T05:22:37.773Z,-0.51
2023-02-19T05:25:05.924Z,-0.49
2023-02-19T05:27:34.919Z,-0.52
2023-02-19T05:30:02.593Z,-0.49
2023-02-19T05:32:30.326Z,-0.55
2023-02-19T05:34:58.028Z,-0.56
2023-02-19T05:37:26.068Z,-0.60
2023-02-19T05:39:53.741Z,-0.61
2023-02-19T05:42:21.441Z,-0.65
2023-02-19T05:44:50.901Z,-0.60
2023-02-19T05:47:18.600Z,-0.66
2023-02-19T05:49:46.296Z,-0.62
2023-02-19T05:52:14.056Z,-0.68
2023-02-19T05:54:41.708Z,-0.69
2023-02-19T05:57:09.317Z,-0.68
2023-02-19T05:59:37.003Z,-0.72
2023-02-19T06:02:06.024Z,-0.73
2023-02-19T06:04:33.715Z,-0.75
2023-02-19T06:07:01.540Z,-0.74
2023-02-19T06:09:29.336Z,-0.75
2023-02-19T06:11:57.167Z,-0.78
2023-02-19T06:14:24.820Z,-0.78
2023-02-19T06:16:52.421Z,-0.76
2023-02-19T06:19:21.488Z,-0.76
2023-02-19T06:21:51.185Z,-0.77
2023-02-19T06:24:18.890Z,-0.79
2023-02-19T06:26:46.625Z,-0.77
2023-02-19T06:29:14.273Z,-0.79
2023-02-19T06:31:42.125Z,-0.78
2023-02-19T06:34:09.791Z,-0.76
2023-02-19T06:36:38.911Z,-0.80
2023-02-19T06:39:06.981Z,-0.81
2023-02-19T06:41:34.828Z,-0.80
2023-02-19T06:44:02.752Z,-0.79
2023-02-19T06:46:30.414Z,-0.75
2023-02-19T06:48:58.187Z,-0.79
2023-02-19T06:51:27.244Z,-0.79
2023-02-19T06:53:56.630Z,-0.77
2023-02-19T06:56:25.754Z,-0.77
2023-02-19T06:58:53.433Z,-0.80
2023-02-19T07:01:21.138Z,-0.74
2023-02-19T07:03:49.031Z,-0.76
2023-02-19T07:06:16.842Z,-0.74
2023-02-19T07:08:44.500Z,-0.74
2023-02-19T07:11:13.515Z,-0.73
2023-02-19T07:13:41.176Z,-0.70
2023-02-19T07:16:11.141Z,-0.71
2023-02-19T07:18:39.266Z,-0.69
2023-02-19T07:21:08.337Z,-0.69
2023-02-19T07:23:36.540Z,-0.67
2023-02-19T07:26:04.340Z,-0.65
2023-02-19T07:28:33.420Z,-0.63
2023-02-19T07:31:02.615Z,-0.62
2023-02-19T07:33:30.353Z,-0.58
2023-02-19T07:35:58.004Z,-0.54
2023-02-19T07:38:26.357Z,-0.55
2023-02-19T07:40:54.300Z,-0.51
2023-02-19T07:43:22.631Z,-0.53
2023-02-19T07:45:51.852Z,-0.50
2023-02-19T07:48:19.892Z,-0.46
2023-02-19T07:50:52.360Z,-0.40
2023-02-19T07:53:20.129Z,-0.38
2023-02-19T07:55:47.751Z,-0.35
2023-02-19T07:58:15.522Z,-0.33
2023-02-19T08:00:43.505Z,-0.32
2023-02-19T08:03:11.792Z,-0.28
2023-02-19T08:05:40.456Z,-0.24
2023-02-19T08:08:08.882Z,-0.22
2023-02-19T08:10:53.540Z,-0.21
2023-02-19T08:13:22.701Z,-0.12
2023-02-19T08:15:51.560Z,-0.10
2023-02-19T08:18:21.788Z,-0.09
2023-02-19T08:20:49.488Z,-0.05
2023-02-19T08:23:17.679Z,0.01
2023-02-19T08:25:45.421Z,0.05
2023-02-19T08:28:13.203Z,0.08
2023-02-19T08:30:42.370Z,0.11
2023-02-19T08:33:10.274Z,0.13
2023-02-19T08:35:39.597Z,0.19
2023-02-19T08:38:08.337Z,0.23
2023-02-19T08:40:36.086Z,0.28
2023-02-19T08:43:04.637Z,0.30
2023-02-19T08:45:32.686Z,0.31
2023-02-19T08:48:00.804Z,0.37
2023-02-19T08:50:28.521Z,0.41
2023-02-19T08:52:57.707Z,0.44
2023-02-19T08:55:27.764Z,0.45
2023-02-19T08:57:55.543Z,0.50
2023-02-19T09:00:23.444Z,0.52
2023-02-19T09:02:51.202Z,0.59
2023-02-19T09:05:19.021Z,0.64
2023-02-19T09:07:46.703Z,0.65
2023-02-19T09:10:15.791Z,0.67
2023-02-19T09:12:43.452Z,0.70
2023-02-19T09:15:11.164Z,0.76
2023-02-19T09:17:38.875Z,0.80
2023-02-19T09:20:06.843Z,0.83
2023-02-19T09:22:35.098Z,0.83
2023-02-19T09:25:02.761Z,0.88
2023-02-19T09:27:33.318Z,0.95
2023-02-19T09:30:03.132Z,0.98
2023-02-19T09:32:31.480Z,0.99
2023-02-19T09:34:59.175Z,1.03
2023-02-19T09:37:27.774Z,1.08
2023-02-19T09:39:55.637Z,1.09
2023-02-19T09:42:24.711Z,1.11
2023-02-19T09:44:56.418Z,1.15
2023-02-19T09:47:25.410Z,1.19
2023-02-19T09:49:54.320Z,1.23
2023-02-19T09:52:28.572Z,1.30
2023-02-19T09:54:59.266Z,1.30
2023-02-19T09:57:27.530Z,1.31
2023-02-19T10:00:00.348Z,1.31
2023-02-19T10:02:30.831Z,1.35
2023-02-19T10:04:58.774Z,1.41
2023-02-19T10:07:28.008Z,1.40
2023-02-19T10:09:58.532Z,1.44
2023-02-19T10:12:27.789Z,1.49
2023-02-19T10:15:01.354Z,1.52
2023-02-19T10:17:31.535Z,1.53
2023-02-19T10:19:59.321Z,1.57
2023-02-19T10:22:27.105Z,1.60
2023-02-19T10:24:56.671Z,1.64
2023-02-19T10:27:27.227Z,1.70
2023-02-19T10:29:54.997Z,1.69
2023-02-19T10:32:25.042Z,1.74
2023-02-19T10:35:07.629Z,1.76
2023-02-19T10:37:36.941Z,1.81
2023-02-19T10:40:04.651Z,1.80
2023-02-19T10:42:32.619Z,1.80
2023-02-19T10:45:02.801Z,1.81
2023-02-19T10:47:33.524Z,1.85
2023-02-19T10:50:04.406Z,1.87
2023-02-19T10:52:34.401Z,1.91
2023-02-19T10:55:16.399Z,1.90
2023-02-19T10:57:44.093Z,2.00
2023-02-19T11:00:22.845Z,2.01
2023-02-19T11:03:11.971Z,2.01
2023-02-19T11:05:42.592Z,2.05
2023-02-19T11:08:18.960Z,2.06
2023-02-19T11:10:49.477Z,2.03
2023-02-19T11:13:18.684Z,2.07
2023-02-19T11:15:52.667Z,2.14
2023-02-19T11:18:23.655Z,2.17
2023-02-19T11:20:54.363Z,2.14
2023-02-19T11:23:25.139Z,2.14
2023-02-19T11:25:54.097Z,2.13
2023-02-19T11:28:27.981Z,2.17
2023-02-19T11:30:55.604Z,2.24
2023-02-19T11:33:28.399Z,2.28
2023-02-19T11:36:00.621Z,2.29
2023-02-19T11:38:28.390Z,2.27
2023-02-19T11:40:59.378Z,2.29
2023-02-19T11:43:48.010Z,2.33
2023-02-19T11:46:18.977Z,2.32
2023-02-19T11:49:00.352Z,2.33
2023-02-19T11:51:49.350Z,2.34
2023-02-19T11:54:33.476Z,2.35
2023-02-19T11:57:09.511Z,2.37
2023-02-19T11:59:40.708Z,2.38
2023-02-19T12:02:19.927Z,2.35
2023-02-19T12:05:13.792Z,2.42
2023-02-19T12:07:53.163Z,2.47
2023-02-19T12:10:22.908Z,2.43
2023-02-19T12:12:57.322Z,2.46
2023-02-19T12:15:30.576Z,2.48
2023-02-19T12:18:19.067Z,2.49
2023-02-19T12:20:52.756Z,2.54
2023-02-19T12:23:33.953Z,2.58
2023-02-19T12:26:06.664Z,2.56
2023-02-19T12:28:49.846Z,2.61
2023-02-19T12:31:28.114Z,2.60
2023-02-19T12:34:13.731Z,2.58
2023-02-19T12:36:47.593Z,2.61
2023-02-19T12:39:19.047Z,2.64
2023-02-19T12:41:51.288Z,2.62
2023-02-19T12:44:20.765Z,2.62
2023-02-19T12:46:50.418Z,2.62
2023-02-19T12:49:23.044Z,2.62
2023-02-19T12:51:57.564Z,2.61
2023-02-19T12:54:27.572Z,2.62
2023-02-19T12:56:58.828Z,2.65
2023-02-19T12:59:31.197Z,2.63
2023-02-19T13:02:01.816Z,2.65
2023-02-19T13:04:35.697Z,2.66
2023-02-19T13:07:07.719Z,2.64
2023-02-19T13:09:37.833Z,2.67
2023-02-19T13:12:08.712Z,2.64
2023-02-19T13:14:38.898Z,2.66
2023-02-19T13:17:11.922Z,2.63
2023-02-19T13:19:39.897Z,2.63
2023-02-19T13:22:35.612Z,2.63
2023-02-19T13:25:04.264Z,2.66
2023-02-19T13:27:37.372Z,2.63
2023-02-19T13:30:11.474Z,2.64
2023-02-19T13:32:50.448Z,2.69
2023-02-19T13:35:25.245Z,2.68
2023-02-19T13:37:55.564Z,2.71
2023-02-19T13:40:27.941Z,2.70
2023-02-19T13:42:56.913Z,2.66
2023-02-19T13:45:29.247Z,2.66
2023-02-19T13:48:01.430Z,2.65
2023-02-19T13:50:30.041Z,2.68
2023-02-19T13:52:59.267Z,2.65
2023-02-19T13:55:46.795Z,2.65
2023-02-19T13:58:44.641Z,2.64
2023-02-19T14:01:14.260Z,2.67
2023-02-19T14:03:47.868Z,2.65
2023-02-19T14:06:15.797Z,2.65
2023-02-19T14:08:52.649Z,2.67
2023-02-19T14:11:40.529Z,2.64
2023-02-19T14:14:28.042Z,2.64
2023-02-19T14:17:07.598Z,2.63
2023-02-19T14:19:46.284Z,2.62
2023-02-19T14:22:32.396Z,2.60
2023-02-19T14:25:01.632Z,2.59
2023-02-19T14:27:29.267Z,2.54
2023-02-19T14:29:57.117Z,2.53
2023-02-19T14:32:25.361Z,2.50
2023-02-19T14:34:53.799Z,2.47
2023-02-19T14:37:22.951Z,2.46
2023-02-19T14:39:52.190Z,2.44
2023-02-19T14:42:24.574Z,2.43
2023-02-19T14:44:53.782Z,2.39
2023-02-19T14:47:25.341Z,2.37
2023-02-19T14:49:55.169Z,2.32
2023-02-19T14:52:25.650Z,2.30
2023-02-19T14:54:55.433Z,2.28
2023-02-19T14:57:26.751Z,2.21
2023-02-19T14:59:56.099Z,2.21
2023-02-19T15:02:25.984Z,2.18
2023-02-19T15:04:53.810Z,2.17
2023-02-19T15:07:23.466Z,2.14
2023-02-19T15:09:52.433Z,2.05
2023-02-19T15:12:22.923Z,2.05
2023-02-19T15:14:54.296Z,2.04
2023-02-19T15:17:28.340Z,2.02
2023-02-19T15:19:56.573Z,1.99
2023-02-19T15:22:26.092Z,1.92
2023-02-19T15:24:53.849Z,1.88
2023-02-19T15:27:22.687Z,1.83
2023-02-19T15:29:53.367Z,1.78
2023-02-19T15:32:23.518Z,1.80
2023-02-19T15:34:55.625Z,1.76
2023-02-19T15:37:24.340Z,1.76
2023-02-19T15:39:53.166Z,1.69
2023-02-19T15:42:22.310Z,1.70
2023-02-19T15:44:52.448Z,1.66
2023-02-19T15:47:26.953Z,1.61
2023-02-19T15:49:58.846Z,1.48
2023-02-19T15:52:32.843Z,1.46
2023-02-19T15:55:04.030Z,1.44
2023-02-19T15:57:33.586Z,1.36
2023-02-19T16:00:04.117Z,1.24
2023-02-19T16:02:35.785Z,1.11
2023-02-19T16:05:12.242Z,1.10
2023-02-19T16:07:39.995Z,1.04
2023-02-19T16:10:17.361Z,0.96
2023-02-19T16:12:45.192Z,1.02
2023-02-19T16:15:13.677Z,0.96
2023-02-19T16:17:45.455Z,0.83
2023-02-19T16:20:18.628Z,0.77
2023-02-19T16:22:46.505Z,0.80
2023-02-19T16:25:24.876Z,0.72
2023-02-19T16:27:52.720Z,0.72
2023-02-19T16:30:25.872Z,0.70
2023-02-19T16:33:08.429Z,0.71
2023-02-19T16:35:38.303Z,0.69
2023-02-19T16:38:13.709Z,0.60
2023-02-19T16:41:02.318Z,0.52
2023-02-19T16:43:32.059Z,0.54
2023-02-19T16:46:00.946Z,0.54
2023-02-19T16:48:29.075Z,0.45
2023-02-19T16:50:59.549Z,0.40
2023-02-19T16:53:28.841Z,0.38
2023-02-19T16:55:56.711Z,0.42
2023-02-19T16:58:24.385Z,0.39
2023-02-19T17:00:52.091Z,0.42
2023-02-19T17:03:21.077Z,0.36
2023-02-19T17:05:48.859Z,0.34
2023-02-19T17:08:31.164Z,0.33
2023-02-19T17:10:59.217Z,0.27
2023-02-19T17:13:26.915Z,0.23
2023-02-19T17:15:56.707Z,0.25
2023-02-19T17:18:24.996Z,0.23
2023-02-19T17:20:56.048Z,0.16
2023-02-19T17:23:24.576Z,0.12
2023-02-19T17:25:53.692Z,0.06
2023-02-19T17:28:21.401Z,0.07
2023-02-19T17:30:49.097Z,0.01
2023-02-19T17:33:16.898Z,-0.05
2023-02-19T17:35:44.956Z,-0.03
2023-02-19T17:38:13.222Z,-0.04
2023-02-19T17:40:40.928Z,-0.01
2023-02-19T17:43:10.060Z,-0.10
2023-02-19T17:45:37.713Z,-0.15
2023-02-19T17:48:06.658Z,-0.16
2023-02-19T17:50:34.309Z,-0.23
2023-02-19T17:53:01.905Z,-0.22
2023-02-19T17:55:29.579Z,-0.20
2023-02-19T17:57:57.318Z,-0.27
2023-02-19T18:00:31.653Z,-0.32
2023-02-19T18:02:59.566Z,-0.31
2023-02-19T18:05:27.224Z,-0.29
2023-02-19T18:07:54.923Z,-0.27
2023-02-19T18:10:23.439Z,-0.25
2023-02-19T18:12:51.454Z,-0.23
2023-02-19T18:15:19.988Z,-0.19
2023-02-19T18:17:49.103Z,-0.19
2023-02-19T18:20:17.411Z,-0.22
2023-02-19T18:22:45.092Z,-0.22
2023-02-19T18:25:12.848Z,-0.23
2023-02-19T18:27:40.569Z,-0.21
2023-02-19T18:30:08.904Z,-0.21
2023-02-19T18:32:37.116Z,-0.25
2023-02-19T18:35:06.547Z,-0.31
2023-02-19T18:37:34.251Z,-0.32
2023-02-19T18:40:02.552Z,-0.37
2023-02-19T18:42:30.180Z,-0.40
2023-02-19T18:44:57.897Z,-0.45
2023-02-19T18:47:26.316Z,-0.43
2023-02-19T18:49:54.971Z,-0.44
2023-02-19T18:52:25.003Z,-0.45
2023-02-19T18:54:53.531Z,-0.48
2023-02-19T18:57:21.935Z,-0.52
2023-02-19T18:59:49.762Z,-0.51
2023-02-19T19:02:17.535Z,-0.51
2023-02-19T19:04:49.163Z,-0.54
2023-02-19T19:07:16.942Z,-0.52
2023-02-19T19:09:46.317Z,-0.53
2023-02-19T19:12:14.607Z,-0.54
2023-02-19T19:14:42.317Z,-0.55
2023-02-19T19:17:10.148Z,-0.59
2023-02-19T19:19:37.824Z,-0.60
2023-02-19T19:22:05.489Z,-0.67
2023-02-19T19:24:33.186Z,-0.73
2023-02-19T19:27:02.176Z,-0.74
2023-02-19T19:29:29.950Z,-0.81
2023-02-19T19:31:57.647Z,-0.86
2023-02-19T19:34:25.342Z,-0.93
2023-02-19T19:36:53.054Z,-0.92
2023-02-19T19:39:20.780Z,-0.96
2023-02-19T19:41:53.928Z,-0.93
2023-02-19T19:44:23.304Z,-0.95
2023-02-19T19:46:51.294Z,-0.93
2023-02-19T19:49:19.502Z,-0.97
2023-02-19T19:51:47.538Z,-0.98
2023-02-19T19:54:15.506Z,-1.03
2023-02-19T19:56:47.121Z,-1.05
2023-02-19T19:59:15.695Z,-1.13
2023-02-19T20:01:50.702Z,-1.17
2023-02-19T20:04:18.675Z,-1.13
2023-02-19T20:06:46.388Z,-1.20
2023-02-19T20:09:14.331Z,-1.25
2023-02-19T20:11:45.696Z,-1.31
2023-02-19T20:14:13.533Z,-1.29
2023-02-19T20:16:43.194Z,-1.30
2023-02-19T20:19:13.424Z,-1.30
2023-02-19T20:21:41.082Z,-1.31
2023-02-19T20:24:08.924Z,-1.32
2023-02-19T20:26:36.571Z,-1.33
2023-02-19T20:29:06.133Z,-1.35
2023-02-19T20:31:33.948Z,-1.41
2023-02-19T20:34:01.858Z,-1.42
2023-02-19T20:36:32.327Z,-1.44
2023-02-19T20:39:00.098Z,-1.39
2023-02-19T20:41:27.769Z,-1.41
2023-02-19T20:43:55.452Z,-1.44
2023-02-19T20:46:23.200Z,-1.46
2023-02-19T20:48:51.926Z,-1.44
2023-02-19T20:51:19.749Z,-1.52
2023-02-19T20:53:48.850Z,-1.50
2023-02-19T20:56:16.561Z,-1.47
2023-02-19T20:58:44.281Z,-1.56
2023-02-19T21:01:12.766Z,-1.59
2023-02-19T21:03:40.659Z,-1.64
2023-02-19T21:06:08.385Z,-1.62
2023-02-19T21:08:36.503Z,-1.63
2023-02-19T21:11:05.775Z,-1.68
2023-02-19T21:13:35.100Z,-1.74
2023-02-19T21:16:02.810Z,-1.73
2023-02-19T21:18:30.476Z,-1.72
2023-02-19T21:20:58.148Z,-1.71
2023-02-19T21:23:25.873Z,-1.71
2023-02-19T21:25:54.625Z,-1.74
2023-02-19T21:28:23.836Z,-1.77
2023-02-19T21:30:51.629Z,-1.80
2023-02-19T21:33:19.612Z,-1.86
2023-02-19T21:35:47.227Z,-1.90
2023-02-19T21:38:14.949Z,-2.00
2023-02-19T21:40:42.610Z,-2.01
2023-02-19T21:43:10.292Z,-1.99
2023-02-19T21:45:39.503Z,-1.99
2023-02-19T21:48:08.403Z,-1.98
2023-02-19T21:50:36.050Z,-1.95
2023-02-19T21:53:05.523Z,-1.97
2023-02-19T21:55:33.204Z,-1.91
2023-02-19T21:58:00.950Z,-1.96
2023-02-19T22:00:28.688Z,-2.02
2023-02-19T22:02:58.148Z,-2.01
2023-02-19T22:05:25.875Z,-2.06
2023-02-19T22:07:53.987Z,-2.01
2023-02-19T22:10:22.880Z,-2.05
2023-02-19T22:12:50.808Z,-2.03
2023-02-19T22:15:18.600Z,-2.02
2023-02-19T22:17:46.757Z,-2.07
2023-02-19T22:20:17.238Z,-2.14
2023-02-19T22:22:44.949Z,-2.16
2023-02-19T22:25:12.552Z,-2.10
2023-02-19T22:27:40.148Z,-2.15
2023-02-19T22:30:08.388Z,-2.10
2023-02-19T22:32:36.242Z,-2.11
2023-02-19T22:35:04.059Z,-2.17
2023-02-19T22:37:33.156Z,-2.21
2023-02-19T22:40:00.862Z,-2.16
2023-02-19T22:42:29.383Z,-2.21
2023-02-19T22:44:57.206Z,-2.21
2023-02-19T22:47:24.981Z,-2.22
2023-02-19T22:49:52.687Z,-2.29
2023-02-19T22:52:20.410Z,-2.30
2023-02-19T22:54:49.738Z,-2.32
2023-02-19T22:57:17.432Z,-2.33
2023-02-19T22:59:45.052Z,-2.32
2023-02-19T23:02:12.808Z,-2.28
2023-02-19T23:04:40.540Z,-2.34
2023-02-19T23:07:08.472Z,-2.28
2023-02-19T23:09:36.453Z,-2.30
2023-02-19T23:12:07.122Z,-2.23
2023-02-19T23:14:34.830Z,-2.27
2023-02-19T23:17:02.781Z,-2.28
2023-02-19T23:19:30.511Z,-2.30
2023-02-19T23:21:58.588Z,-2.32
2023-02-19T23:24:26.282Z,-2.29
2023-02-19T23:26:54.389Z,-2.25
2023-02-19T23:29:25.340Z,-2.21
2023-02-19T23:31:53.419Z,-2.24
2023-02-19T23:34:21.353Z,-2.22
2023-02-19T23:36:50.261Z,-2.22
2023-02-19T23:39:19.372Z,-2.24
2023-02-19T23:41:47.400Z,-2.24
2023-02-19T23:44:15.080Z,-2.26
2023-02-19T23:46:44.595Z,-2.24
2023-02-19T23:49:12.815Z,-2.24
2023-02-19T23:51:40.604Z,-2.20
2023-02-19T23:54:08.574Z,-2.20
2023-02-19T23:56:36.273Z,-2.23
2023-02-19T23:59:04.031Z,-2.27
